sensor_id;sensor_type;location;lat;lon;timestamp;temperature;humidity
39019;DHT22;24786;51.984;5.872;2023-06-14T00:01:35;19.60;64.00
39019;DHT22;24786;51.984;5.872;2023-06-14T00:04:01;19.60;64.10
39019;DHT22;24786;51.984;5.872;2023-06-14T00:06:28;19.60;64.20
39019;DHT22;24786;51.984;5.872;2023-06-14T00:08:53;19.60;64.20
39019;DHT22;24786;51.984;5.872;2023-06-14T00:11:19;19.50;64.30
39019;DHT22;24786;51.984;5.872;2023-06-14T00:13:45;19.50;64.30
39019;DHT22;24786;51.984;5.872;2023-06-14T00:16:10;19.50;64.50
39019;DHT22;24786;51.984;5.872;2023-06-14T00:18:36;19.50;64.70
39019;DHT22;24786;51.984;5.872;2023-06-14T00:21:03;19.40;64.70
39019;DHT22;24786;51.984;5.872;2023-06-14T00:23:29;19.40;64.70
39019;DHT22;24786;51.984;5.872;2023-06-14T00:25:55;19.40;64.90
39019;DHT22;24786;51.984;5.872;2023-06-14T00:28:20;19.30;65.10
39019;DHT22;24786;51.984;5.872;2023-06-14T00:30:46;19.30;65.20
39019;DHT22;24786;51.984;5.872;2023-06-14T00:33:12;19.30;65.20
39019;DHT22;24786;51.984;5.872;2023-06-14T00:35:37;19.20;65.30
39019;DHT22;24786;51.984;5.872;2023-06-14T00:38:03;19.20;65.70
39019;DHT22;24786;51.984;5.872;2023-06-14T00:40:28;19.10;65.80
39019;DHT22;24786;51.984;5.872;2023-06-14T00:42:54;19.10;65.80
39019;DHT22;24786;51.984;5.872;2023-06-14T00:45:19;19.20;65.80
39019;DHT22;24786;51.984;5.872;2023-06-14T00:47:45;19.00;65.90
39019;DHT22;24786;51.984;5.872;2023-06-14T00:50:11;19.10;66.00
39019;DHT22;24786;51.984;5.872;2023-06-14T00:52:37;19.00;66.10
39019;DHT22;24786;51.984;5.872;2023-06-14T00:55:02;19.00;66.20
39019;DHT22;24786;51.984;5.872;2023-06-14T00:57:28;19.00;66.30
39019;DHT22;24786;51.984;5.872;2023-06-14T00:59:54;18.90;67.00
39019;DHT22;24786;51.984;5.872;2023-06-14T01:02:20;18.90;66.50
39019;DHT22;24786;51.984;5.872;2023-06-14T01:04:46;18.90;66.60
39019;DHT22;24786;51.984;5.872;2023-06-14T01:10:17;18.80;66.80
39019;DHT22;24786;51.984;5.872;2023-06-14T01:15:12;18.80;66.70
39019;DHT22;24786;51.984;5.872;2023-06-14T01:17:38;18.80;66.80
39019;DHT22;24786;51.984;5.872;2023-06-14T01:20:07;18.80;67.00
39019;DHT22;24786;51.984;5.872;2023-06-14T01:22:35;18.80;67.00
39019;DHT22;24786;51.984;5.872;2023-06-14T01:25:01;18.70;66.90
39019;DHT22;24786;51.984;5.872;2023-06-14T01:27:26;18.70;67.10
39019;DHT22;24786;51.984;5.872;2023-06-14T01:29:55;18.70;67.20
39019;DHT22;24786;51.984;5.872;2023-06-14T01:32:23;18.70;67.20
39019;DHT22;24786;51.984;5.872;2023-06-14T01:34:48;18.70;67.20
39019;DHT22;24786;51.984;5.872;2023-06-14T01:37:14;18.70;67.20
39019;DHT22;24786;51.984;5.872;2023-06-14T01:39:39;18.70;67.20
39019;DHT22;24786;51.984;5.872;2023-06-14T01:42:06;18.60;67.10
39019;DHT22;24786;51.984;5.872;2023-06-14T01:44:32;18.70;67.20
39019;DHT22;24786;51.984;5.872;2023-06-14T01:46:57;18.60;67.20
39019;DHT22;24786;51.984;5.872;2023-06-14T01:49:23;18.60;67.40
39019;DHT22;24786;51.984;5.872;2023-06-14T01:51:49;18.60;67.60
39019;DHT22;24786;51.984;5.872;2023-06-14T01:54:14;18.50;67.70
39019;DHT22;24786;51.984;5.872;2023-06-14T01:56:40;18.40;67.70
39019;DHT22;24786;51.984;5.872;2023-06-14T01:59:05;18.50;67.70
39019;DHT22;24786;51.984;5.872;2023-06-14T02:01:31;18.50;67.60
39019;DHT22;24786;51.984;5.872;2023-06-14T02:03:56;18.40;67.60
39019;DHT22;24786;51.984;5.872;2023-06-14T02:06:22;18.50;67.70
39019;DHT22;24786;51.984;5.872;2023-06-14T02:08:47;18.40;67.70
39019;DHT22;24786;51.984;5.872;2023-06-14T02:11:13;18.50;67.90
39019;DHT22;24786;51.984;5.872;2023-06-14T02:13:38;18.40;68.00
39019;DHT22;24786;51.984;5.872;2023-06-14T02:16:03;18.40;68.10
39019;DHT22;24786;51.984;5.872;2023-06-14T02:18:29;18.30;68.10
39019;DHT22;24786;51.984;5.872;2023-06-14T02:20:55;18.30;68.20
39019;DHT22;24786;51.984;5.872;2023-06-14T02:23:20;18.30;68.20
39019;DHT22;24786;51.984;5.872;2023-06-14T02:25:46;18.30;68.30
39019;DHT22;24786;51.984;5.872;2023-06-14T02:28:11;18.20;68.40
39019;DHT22;24786;51.984;5.872;2023-06-14T02:30:37;18.20;68.50
39019;DHT22;24786;51.984;5.872;2023-06-14T02:33:02;18.20;68.90
39019;DHT22;24786;51.984;5.872;2023-06-14T02:35:29;18.10;69.00
39019;DHT22;24786;51.984;5.872;2023-06-14T02:37:54;18.10;69.20
39019;DHT22;24786;51.984;5.872;2023-06-14T02:40:20;18.00;69.20
39019;DHT22;24786;51.984;5.872;2023-06-14T02:42:45;18.10;69.20
39019;DHT22;24786;51.984;5.872;2023-06-14T02:45:11;18.10;69.10
39019;DHT22;24786;51.984;5.872;2023-06-14T02:47:36;18.10;69.10
39019;DHT22;24786;51.984;5.872;2023-06-14T02:50:02;18.00;69.10
39019;DHT22;24786;51.984;5.872;2023-06-14T02:52:28;18.00;69.30
39019;DHT22;24786;51.984;5.872;2023-06-14T02:54:53;18.00;69.30
39019;DHT22;24786;51.984;5.872;2023-06-14T02:57:20;18.00;69.40
39019;DHT22;24786;51.984;5.872;2023-06-14T02:59:45;17.90;69.40
39019;DHT22;24786;51.984;5.872;2023-06-14T03:02:11;17.90;69.60
39019;DHT22;24786;51.984;5.872;2023-06-14T03:04:36;17.90;69.60
39019;DHT22;24786;51.984;5.872;2023-06-14T03:07:02;17.80;69.90
39019;DHT22;24786;51.984;5.872;2023-06-14T03:09:37;17.80;70.00
39019;DHT22;24786;51.984;5.872;2023-06-14T03:12:03;17.80;70.20
39019;DHT22;24786;51.984;5.872;2023-06-14T03:14:29;17.70;70.10
39019;DHT22;24786;51.984;5.872;2023-06-14T03:16:56;17.70;70.40
39019;DHT22;24786;51.984;5.872;2023-06-14T03:19:22;17.70;70.50
39019;DHT22;24786;51.984;5.872;2023-06-14T03:21:47;17.60;70.60
39019;DHT22;24786;51.984;5.872;2023-06-14T03:24:13;17.60;70.70
39019;DHT22;24786;51.984;5.872;2023-06-14T03:26:38;17.60;70.60
39019;DHT22;24786;51.984;5.872;2023-06-14T03:29:04;17.60;70.70
39019;DHT22;24786;51.984;5.872;2023-06-14T03:31:30;17.50;70.90
39019;DHT22;24786;51.984;5.872;2023-06-14T03:33:58;17.60;71.00
39019;DHT22;24786;51.984;5.872;2023-06-14T03:36:23;17.50;71.20
39019;DHT22;24786;51.984;5.872;2023-06-14T03:38:49;17.50;71.00
39019;DHT22;24786;51.984;5.872;2023-06-14T03:41:14;17.60;71.10
39019;DHT22;24786;51.984;5.872;2023-06-14T03:43:40;17.50;71.20
39019;DHT22;24786;51.984;5.872;2023-06-14T03:46:05;17.50;71.20
39019;DHT22;24786;51.984;5.872;2023-06-14T03:48:31;17.50;71.30
39019;DHT22;24786;51.984;5.872;2023-06-14T03:50:57;17.50;71.30
39019;DHT22;24786;51.984;5.872;2023-06-14T03:53:23;17.50;71.40
39019;DHT22;24786;51.984;5.872;2023-06-14T03:55:49;17.40;71.40
39019;DHT22;24786;51.984;5.872;2023-06-14T03:58:15;17.40;71.50
39019;DHT22;24786;51.984;5.872;2023-06-14T04:00:41;17.40;71.60
39019;DHT22;24786;51.984;5.872;2023-06-14T04:03:06;17.40;71.70
39019;DHT22;24786;51.984;5.872;2023-06-14T04:05:32;17.40;71.60
39019;DHT22;24786;51.984;5.872;2023-06-14T04:07:57;17.40;72.00
39019;DHT22;24786;51.984;5.872;2023-06-14T04:10:24;17.40;71.90
39019;DHT22;24786;51.984;5.872;2023-06-14T04:12:49;17.40;71.90
39019;DHT22;24786;51.984;5.872;2023-06-14T04:15:16;17.40;71.90
39019;DHT22;24786;51.984;5.872;2023-06-14T04:17:41;17.40;72.10
39019;DHT22;24786;51.984;5.872;2023-06-14T04:20:07;17.30;72.30
39019;DHT22;24786;51.984;5.872;2023-06-14T04:22:34;17.30;72.90
39019;DHT22;24786;51.984;5.872;2023-06-14T04:25:01;17.30;72.50
39019;DHT22;24786;51.984;5.872;2023-06-14T04:27:27;17.30;72.50
39019;DHT22;24786;51.984;5.872;2023-06-14T04:29:53;17.30;72.70
39019;DHT22;24786;51.984;5.872;2023-06-14T04:32:28;17.40;72.80
39019;DHT22;24786;51.984;5.872;2023-06-14T04:34:55;17.30;72.80
39019;DHT22;24786;51.984;5.872;2023-06-14T04:37:21;17.30;72.70
39019;DHT22;24786;51.984;5.872;2023-06-14T04:39:47;17.30;72.70
39019;DHT22;24786;51.984;5.872;2023-06-14T04:42:12;17.30;72.80
39019;DHT22;24786;51.984;5.872;2023-06-14T04:44:43;17.30;72.90
39019;DHT22;24786;51.984;5.872;2023-06-14T04:47:09;17.40;73.00
39019;DHT22;24786;51.984;5.872;2023-06-14T04:49:34;17.30;73.00
39019;DHT22;24786;51.984;5.872;2023-06-14T04:52:00;17.40;73.10
39019;DHT22;24786;51.984;5.872;2023-06-14T04:54:27;17.40;73.00
39019;DHT22;24786;51.984;5.872;2023-06-14T04:56:52;17.40;72.90
39019;DHT22;24786;51.984;5.872;2023-06-14T04:59:20;17.40;72.80
39019;DHT22;24786;51.984;5.872;2023-06-14T05:01:48;17.40;72.80
39019;DHT22;24786;51.984;5.872;2023-06-14T05:04:17;17.50;72.60
39019;DHT22;24786;51.984;5.872;2023-06-14T05:06:43;17.60;72.60
39019;DHT22;24786;51.984;5.872;2023-06-14T05:09:15;17.60;72.60
39019;DHT22;24786;51.984;5.872;2023-06-14T05:11:42;17.80;72.50
39019;DHT22;24786;51.984;5.872;2023-06-14T05:14:10;18.00;72.30
39019;DHT22;24786;51.984;5.872;2023-06-14T05:16:36;18.10;72.00
39019;DHT22;24786;51.984;5.872;2023-06-14T05:19:02;18.40;71.80
39019;DHT22;24786;51.984;5.872;2023-06-14T05:21:28;18.60;71.50
39019;DHT22;24786;51.984;5.872;2023-06-14T05:23:53;18.80;71.20
39019;DHT22;24786;51.984;5.872;2023-06-14T05:26:19;19.00;71.00
39019;DHT22;24786;51.984;5.872;2023-06-14T05:28:48;19.20;70.80
39019;DHT22;24786;51.984;5.872;2023-06-14T05:31:15;19.30;70.60
39019;DHT22;24786;51.984;5.872;2023-06-14T05:33:40;19.40;70.40
39019;DHT22;24786;51.984;5.872;2023-06-14T05:36:06;19.50;70.20
39019;DHT22;24786;51.984;5.872;2023-06-14T05:38:31;19.60;70.10
39019;DHT22;24786;51.984;5.872;2023-06-14T05:40:56;19.70;70.00
39019;DHT22;24786;51.984;5.872;2023-06-14T05:43:22;19.70;69.80
39019;DHT22;24786;51.984;5.872;2023-06-14T05:45:47;19.80;69.60
39019;DHT22;24786;51.984;5.872;2023-06-14T05:48:13;19.90;69.60
39019;DHT22;24786;51.984;5.872;2023-06-14T05:50:38;20.00;69.50
39019;DHT22;24786;51.984;5.872;2023-06-14T05:53:04;20.10;69.30
39019;DHT22;24786;51.984;5.872;2023-06-14T05:55:29;20.20;69.20
39019;DHT22;24786;51.984;5.872;2023-06-14T05:57:55;20.30;69.10
39019;DHT22;24786;51.984;5.872;2023-06-14T06:00:20;20.40;68.90
39019;DHT22;24786;51.984;5.872;2023-06-14T06:02:46;20.50;69.00
39019;DHT22;24786;51.984;5.872;2023-06-14T06:05:14;20.60;68.90
39019;DHT22;24786;51.984;5.872;2023-06-14T06:07:40;20.70;68.70
39019;DHT22;24786;51.984;5.872;2023-06-14T06:10:07;20.90;68.40
39019;DHT22;24786;51.984;5.872;2023-06-14T06:12:32;20.80;68.30
39019;DHT22;24786;51.984;5.872;2023-06-14T06:14:58;20.90;68.30
39019;DHT22;24786;51.984;5.872;2023-06-14T06:17:24;21.10;68.40
39019;DHT22;24786;51.984;5.872;2023-06-14T06:19:50;21.20;68.20
39019;DHT22;24786;51.984;5.872;2023-06-14T06:22:15;21.40;68.10
39019;DHT22;24786;51.984;5.872;2023-06-14T06:24:42;21.50;68.00
39019;DHT22;24786;51.984;5.872;2023-06-14T06:27:07;21.60;67.90
39019;DHT22;24786;51.984;5.872;2023-06-14T06:29:37;21.70;67.60
39019;DHT22;24786;51.984;5.872;2023-06-14T06:32:03;21.80;67.60
39019;DHT22;24786;51.984;5.872;2023-06-14T06:34:31;21.80;67.60
39019;DHT22;24786;51.984;5.872;2023-06-14T06:36:56;21.90;67.50
39019;DHT22;24786;51.984;5.872;2023-06-14T06:39:22;22.10;67.30
39019;DHT22;24786;51.984;5.872;2023-06-14T06:41:47;22.10;67.10
39019;DHT22;24786;51.984;5.872;2023-06-14T06:44:13;22.20;66.70
39019;DHT22;24786;51.984;5.872;2023-06-14T06:46:38;22.20;66.80
39019;DHT22;24786;51.984;5.872;2023-06-14T06:49:08;22.20;66.80
39019;DHT22;24786;51.984;5.872;2023-06-14T06:51:34;22.20;66.60
39019;DHT22;24786;51.984;5.872;2023-06-14T06:54:00;22.10;66.20
39019;DHT22;24786;51.984;5.872;2023-06-14T06:56:25;22.10;66.40
39019;DHT22;24786;51.984;5.872;2023-06-14T06:58:51;22.20;66.50
39019;DHT22;24786;51.984;5.872;2023-06-14T07:01:17;22.30;66.50
39019;DHT22;24786;51.984;5.872;2023-06-14T07:03:42;22.40;66.20
39019;DHT22;24786;51.984;5.872;2023-06-14T07:06:08;22.40;66.20
39019;DHT22;24786;51.984;5.872;2023-06-14T07:08:34;22.50;66.00
39019;DHT22;24786;51.984;5.872;2023-06-14T07:10:59;22.40;65.80
39019;DHT22;24786;51.984;5.872;2023-06-14T07:13:25;22.50;65.80
39019;DHT22;24786;51.984;5.872;2023-06-14T07:15:50;22.50;65.80
39019;DHT22;24786;51.984;5.872;2023-06-14T07:18:18;22.50;65.70
39019;DHT22;24786;51.984;5.872;2023-06-14T07:20:44;22.60;65.70
39019;DHT22;24786;51.984;5.872;2023-06-14T07:23:09;22.70;65.60
39019;DHT22;24786;51.984;5.872;2023-06-14T07:25:36;22.70;65.30
39019;DHT22;24786;51.984;5.872;2023-06-14T07:28:01;22.60;64.90
39019;DHT22;24786;51.984;5.872;2023-06-14T07:30:27;22.60;65.10
39019;DHT22;24786;51.984;5.872;2023-06-14T07:32:53;22.60;65.00
39019;DHT22;24786;51.984;5.872;2023-06-14T07:35:18;22.60;65.10
39019;DHT22;24786;51.984;5.872;2023-06-14T07:37:44;22.60;65.10
39019;DHT22;24786;51.984;5.872;2023-06-14T07:40:10;22.70;64.80
39019;DHT22;24786;51.984;5.872;2023-06-14T07:42:36;22.70;64.80
39019;DHT22;24786;51.984;5.872;2023-06-14T07:45:05;22.70;64.80
39019;DHT22;24786;51.984;5.872;2023-06-14T07:47:31;22.70;64.60
39019;DHT22;24786;51.984;5.872;2023-06-14T07:49:57;22.80;64.60
39019;DHT22;24786;51.984;5.872;2023-06-14T07:52:22;22.90;64.60
39019;DHT22;24786;51.984;5.872;2023-06-14T07:54:48;23.00;64.30
39019;DHT22;24786;51.984;5.872;2023-06-14T07:57:16;23.00;64.00
39019;DHT22;24786;51.984;5.872;2023-06-14T07:59:41;23.20;63.90
39019;DHT22;24786;51.984;5.872;2023-06-14T08:02:07;23.30;64.00
39019;DHT22;24786;51.984;5.872;2023-06-14T08:04:32;23.40;63.80
39019;DHT22;24786;51.984;5.872;2023-06-14T08:06:58;23.50;63.80
39019;DHT22;24786;51.984;5.872;2023-06-14T08:09:24;23.60;63.20
39019;DHT22;24786;51.984;5.872;2023-06-14T08:11:50;23.70;63.20
39019;DHT22;24786;51.984;5.872;2023-06-14T08:14:16;23.70;62.80
39019;DHT22;24786;51.984;5.872;2023-06-14T08:16:41;23.70;62.70
39019;DHT22;24786;51.984;5.872;2023-06-14T08:19:07;23.70;62.40
39019;DHT22;24786;51.984;5.872;2023-06-14T08:21:32;23.80;62.60
39019;DHT22;24786;51.984;5.872;2023-06-14T08:23:58;23.80;62.40
39019;DHT22;24786;51.984;5.872;2023-06-14T08:26:24;23.90;61.90
39019;DHT22;24786;51.984;5.872;2023-06-14T08:28:54;23.80;61.80
39019;DHT22;24786;51.984;5.872;2023-06-14T08:31:20;23.90;61.80
39019;DHT22;24786;51.984;5.872;2023-06-14T08:33:45;23.80;61.20
39019;DHT22;24786;51.984;5.872;2023-06-14T08:36:11;23.80;61.20
39019;DHT22;24786;51.984;5.872;2023-06-14T08:38:37;23.90;61.10
39019;DHT22;24786;51.984;5.872;2023-06-14T08:41:03;23.90;60.70
39019;DHT22;24786;51.984;5.872;2023-06-14T08:43:29;23.90;60.40
39019;DHT22;24786;51.984;5.872;2023-06-14T08:46:02;23.90;60.70
39019;DHT22;24786;51.984;5.872;2023-06-14T08:48:28;24.00;61.00
39019;DHT22;24786;51.984;5.872;2023-06-14T08:50:57;24.00;61.10
39019;DHT22;24786;51.984;5.872;2023-06-14T08:53:32;24.00;61.00
39019;DHT22;24786;51.984;5.872;2023-06-14T08:56:02;24.00;61.20
39019;DHT22;24786;51.984;5.872;2023-06-14T08:58:33;24.10;61.30
39019;DHT22;24786;51.984;5.872;2023-06-14T09:00:59;24.30;61.30
39019;DHT22;24786;51.984;5.872;2023-06-14T09:03:26;24.30;60.70
39019;DHT22;24786;51.984;5.872;2023-06-14T09:05:57;24.40;59.80
39019;DHT22;24786;51.984;5.872;2023-06-14T09:08:29;24.50;59.90
39019;DHT22;24786;51.984;5.872;2023-06-14T09:10:57;24.50;60.00
39019;DHT22;24786;51.984;5.872;2023-06-14T09:13:23;24.50;60.10
39019;DHT22;24786;51.984;5.872;2023-06-14T09:15:48;24.60;60.30
39019;DHT22;24786;51.984;5.872;2023-06-14T09:18:14;24.80;60.30
39019;DHT22;24786;51.984;5.872;2023-06-14T09:20:39;24.90;60.10
39019;DHT22;24786;51.984;5.872;2023-06-14T09:23:06;24.90;59.30
39019;DHT22;24786;51.984;5.872;2023-06-14T09:25:32;25.00;58.80
39019;DHT22;24786;51.984;5.872;2023-06-14T09:27:57;25.00;59.00
39019;DHT22;24786;51.984;5.872;2023-06-14T09:30:23;25.00;58.80
39019;DHT22;24786;51.984;5.872;2023-06-14T09:32:48;24.90;58.80
39019;DHT22;24786;51.984;5.872;2023-06-14T09:35:17;24.90;59.00
39019;DHT22;24786;51.984;5.872;2023-06-14T09:37:43;24.90;59.20
39019;DHT22;24786;51.984;5.872;2023-06-14T09:40:08;24.90;59.30
39019;DHT22;24786;51.984;5.872;2023-06-14T09:42:35;25.00;59.20
39019;DHT22;24786;51.984;5.872;2023-06-14T09:45:02;25.00;59.10
39019;DHT22;24786;51.984;5.872;2023-06-14T09:47:28;25.10;59.50
39019;DHT22;24786;51.984;5.872;2023-06-14T09:49:56;25.10;59.50
39019;DHT22;24786;51.984;5.872;2023-06-14T09:52:22;25.10;58.70
39019;DHT22;24786;51.984;5.872;2023-06-14T09:54:52;25.10;58.90
39019;DHT22;24786;51.984;5.872;2023-06-14T09:57:22;25.10;58.10
39019;DHT22;24786;51.984;5.872;2023-06-14T09:59:48;25.10;58.00
39019;DHT22;24786;51.984;5.872;2023-06-14T10:02:29;25.10;57.80
39019;DHT22;24786;51.984;5.872;2023-06-14T10:07:32;25.30;58.10
39019;DHT22;24786;51.984;5.872;2023-06-14T10:10:00;25.30;57.60
39019;DHT22;24786;51.984;5.872;2023-06-14T10:12:26;25.30;57.50
39019;DHT22;24786;51.984;5.872;2023-06-14T10:14:51;25.40;57.00
39019;DHT22;24786;51.984;5.872;2023-06-14T10:17:22;25.30;57.20
39019;DHT22;24786;51.984;5.872;2023-06-14T10:19:50;25.30;57.50
39019;DHT22;24786;51.984;5.872;2023-06-14T10:22:22;25.40;57.40
39019;DHT22;24786;51.984;5.872;2023-06-14T10:24:50;25.40;57.20
39019;DHT22;24786;51.984;5.872;2023-06-14T10:27:15;25.50;57.50
39019;DHT22;24786;51.984;5.872;2023-06-14T10:32:23;25.70;57.50
39019;DHT22;24786;51.984;5.872;2023-06-14T10:34:56;25.80;57.20
39019;DHT22;24786;51.984;5.872;2023-06-14T10:37:21;25.80;57.00
39019;DHT22;24786;51.984;5.872;2023-06-14T10:39:47;25.80;57.00
39019;DHT22;24786;51.984;5.872;2023-06-14T10:42:13;25.80;57.00
39019;DHT22;24786;51.984;5.872;2023-06-14T10:44:39;25.90;57.20
39019;DHT22;24786;51.984;5.872;2023-06-14T10:47:24;26.00;57.20
39019;DHT22;24786;51.984;5.872;2023-06-14T10:49:51;25.90;56.50
39019;DHT22;24786;51.984;5.872;2023-06-14T10:52:20;25.90;56.80
39019;DHT22;24786;51.984;5.872;2023-06-14T10:55:08;26.00;56.80
39019;DHT22;24786;51.984;5.872;2023-06-14T10:57:40;26.10;56.80
39019;DHT22;24786;51.984;5.872;2023-06-14T11:00:06;26.20;56.00
39019;DHT22;24786;51.984;5.872;2023-06-14T11:05:03;26.10;56.10
39019;DHT22;24786;51.984;5.872;2023-06-14T11:10:04;25.90;55.80
39019;DHT22;24786;51.984;5.872;2023-06-14T11:12:31;26.00;55.80
39019;DHT22;24786;51.984;5.872;2023-06-14T11:14:57;25.90;55.20
39019;DHT22;24786;51.984;5.872;2023-06-14T11:17:22;25.90;54.90
39019;DHT22;24786;51.984;5.872;2023-06-14T11:19:48;26.00;55.20
39019;DHT22;24786;51.984;5.872;2023-06-14T11:22:13;26.00;55.50
39019;DHT22;24786;51.984;5.872;2023-06-14T11:24:40;26.10;55.40
39019;DHT22;24786;51.984;5.872;2023-06-14T11:27:05;26.10;55.10
39019;DHT22;24786;51.984;5.872;2023-06-14T11:29:31;26.10;54.60
39019;DHT22;24786;51.984;5.872;2023-06-14T11:31:57;25.90;54.60
39019;DHT22;24786;51.984;5.872;2023-06-14T11:34:22;25.90;54.90
39019;DHT22;24786;51.984;5.872;2023-06-14T11:36:48;26.00;55.30
39019;DHT22;24786;51.984;5.872;2023-06-14T11:39:13;26.20;55.10
39019;DHT22;24786;51.984;5.872;2023-06-14T11:41:40;26.20;54.70
39019;DHT22;24786;51.984;5.872;2023-06-14T11:44:06;26.20;54.40
39019;DHT22;24786;51.984;5.872;2023-06-14T11:46:32;26.30;54.60
39019;DHT22;24786;51.984;5.872;2023-06-14T11:48:57;26.30;54.90
39019;DHT22;24786;51.984;5.872;2023-06-14T11:51:23;26.40;55.10
39019;DHT22;24786;51.984;5.872;2023-06-14T11:53:48;26.50;55.00
39019;DHT22;24786;51.984;5.872;2023-06-14T11:56:14;26.60;55.10
39019;DHT22;24786;51.984;5.872;2023-06-14T11:58:42;26.60;55.30
39019;DHT22;24786;51.984;5.872;2023-06-14T12:01:07;26.70;55.20
39019;DHT22;24786;51.984;5.872;2023-06-14T12:03:33;26.80;55.30
39019;DHT22;24786;51.984;5.872;2023-06-14T12:06:05;26.80;55.30
39019;DHT22;24786;51.984;5.872;2023-06-14T12:08:33;26.80;55.20
39019;DHT22;24786;51.984;5.872;2023-06-14T12:11:04;26.80;55.40
39019;DHT22;24786;51.984;5.872;2023-06-14T12:13:29;26.90;55.70
39019;DHT22;24786;51.984;5.872;2023-06-14T12:15:55;26.90;55.00
39019;DHT22;24786;51.984;5.872;2023-06-14T12:18:23;26.90;55.00
39019;DHT22;24786;51.984;5.872;2023-06-14T12:20:58;26.90;55.10
39019;DHT22;24786;51.984;5.872;2023-06-14T12:23:26;26.90;54.80
39019;DHT22;24786;51.984;5.872;2023-06-14T12:25:51;27.00;54.50
39019;DHT22;24786;51.984;5.872;2023-06-14T12:28:17;27.10;54.60
39019;DHT22;24786;51.984;5.872;2023-06-14T12:30:43;27.00;54.50
39019;DHT22;24786;51.984;5.872;2023-06-14T12:33:08;27.10;54.80
39019;DHT22;24786;51.984;5.872;2023-06-14T12:35:34;27.20;54.90
39019;DHT22;24786;51.984;5.872;2023-06-14T12:38:00;27.30;55.00
39019;DHT22;24786;51.984;5.872;2023-06-14T12:40:25;27.50;55.20
39019;DHT22;24786;51.984;5.872;2023-06-14T12:42:51;27.50;54.80
39019;DHT22;24786;51.984;5.872;2023-06-14T12:45:17;27.40;54.60
39019;DHT22;24786;51.984;5.872;2023-06-14T12:47:42;27.40;54.70
39019;DHT22;24786;51.984;5.872;2023-06-14T12:50:08;27.50;55.00
39019;DHT22;24786;51.984;5.872;2023-06-14T12:52:33;27.50;54.20
39019;DHT22;24786;51.984;5.872;2023-06-14T12:55:05;27.50;54.60
39019;DHT22;24786;51.984;5.872;2023-06-14T12:57:31;27.50;54.80
39019;DHT22;24786;51.984;5.872;2023-06-14T12:59:56;27.40;54.80
39019;DHT22;24786;51.984;5.872;2023-06-14T13:02:22;27.50;55.00
39019;DHT22;24786;51.984;5.872;2023-06-14T13:04:48;27.50;54.30
39019;DHT22;24786;51.984;5.872;2023-06-14T13:07:14;27.50;54.60
39019;DHT22;24786;51.984;5.872;2023-06-14T13:09:40;27.50;54.70
39019;DHT22;24786;51.984;5.872;2023-06-14T13:12:06;27.40;54.90
39019;DHT22;24786;51.984;5.872;2023-06-14T13:14:32;27.40;55.00
39019;DHT22;24786;51.984;5.872;2023-06-14T13:16:57;27.50;55.00
39019;DHT22;24786;51.984;5.872;2023-06-14T13:19:23;27.40;55.10
39019;DHT22;24786;51.984;5.872;2023-06-14T13:21:48;27.50;54.80
39019;DHT22;24786;51.984;5.872;2023-06-14T13:24:14;27.50;54.70
39019;DHT22;24786;51.984;5.872;2023-06-14T13:26:39;27.50;54.30
39019;DHT22;24786;51.984;5.872;2023-06-14T13:29:05;27.50;54.60
39019;DHT22;24786;51.984;5.872;2023-06-14T13:31:30;27.60;54.80
39019;DHT22;24786;51.984;5.872;2023-06-14T13:33:56;27.50;54.60
39019;DHT22;24786;51.984;5.872;2023-06-14T13:36:21;27.60;54.60
39019;DHT22;24786;51.984;5.872;2023-06-14T13:38:47;27.60;54.70
39019;DHT22;24786;51.984;5.872;2023-06-14T13:41:12;27.60;53.90
39019;DHT22;24786;51.984;5.872;2023-06-14T13:43:38;27.50;53.90
39019;DHT22;24786;51.984;5.872;2023-06-14T13:46:04;27.30;54.00
39019;DHT22;24786;51.984;5.872;2023-06-14T13:48:29;27.30;54.10
39019;DHT22;24786;51.984;5.872;2023-06-14T13:50:55;27.30;54.00
39019;DHT22;24786;51.984;5.872;2023-06-14T13:53:20;27.40;54.30
39019;DHT22;24786;51.984;5.872;2023-06-14T13:55:46;27.50;54.30
39019;DHT22;24786;51.984;5.872;2023-06-14T13:58:11;27.50;54.40
39019;DHT22;24786;51.984;5.872;2023-06-14T14:00:37;27.50;54.30
39019;DHT22;24786;51.984;5.872;2023-06-14T14:03:05;27.50;54.20
39019;DHT22;24786;51.984;5.872;2023-06-14T14:05:31;27.40;54.00
39019;DHT22;24786;51.984;5.872;2023-06-14T14:07:56;27.50;54.10
39019;DHT22;24786;51.984;5.872;2023-06-14T14:10:23;27.50;54.00
39019;DHT22;24786;51.984;5.872;2023-06-14T14:12:52;27.50;53.30
39019;DHT22;24786;51.984;5.872;2023-06-14T14:15:19;27.40;53.40
39019;DHT22;24786;51.984;5.872;2023-06-14T14:17:44;27.20;53.80
39019;DHT22;24786;51.984;5.872;2023-06-14T14:20:10;27.20;54.00
39019;DHT22;24786;51.984;5.872;2023-06-14T14:22:38;27.20;54.00
39019;DHT22;24786;51.984;5.872;2023-06-14T14:25:03;27.20;54.10
39019;DHT22;24786;51.984;5.872;2023-06-14T14:27:29;27.30;54.20
39019;DHT22;24786;51.984;5.872;2023-06-14T14:29:54;27.20;54.20
39019;DHT22;24786;51.984;5.872;2023-06-14T14:32:20;27.20;54.20
39019;DHT22;24786;51.984;5.872;2023-06-14T14:34:45;27.30;54.10
39019;DHT22;24786;51.984;5.872;2023-06-14T14:37:11;27.30;53.80
39019;DHT22;24786;51.984;5.872;2023-06-14T14:39:36;27.30;53.80
39019;DHT22;24786;51.984;5.872;2023-06-14T14:42:02;27.30;53.50
39019;DHT22;24786;51.984;5.872;2023-06-14T14:44:28;27.20;53.70
39019;DHT22;24786;51.984;5.872;2023-06-14T14:46:53;27.30;53.20
39019;DHT22;24786;51.984;5.872;2023-06-14T14:49:18;27.30;53.00
39019;DHT22;24786;51.984;5.872;2023-06-14T14:51:44;27.40;52.90
39019;DHT22;24786;51.984;5.872;2023-06-14T14:54:09;27.30;52.80
39019;DHT22;24786;51.984;5.872;2023-06-14T14:56:35;27.20;53.30
39019;DHT22;24786;51.984;5.872;2023-06-14T14:59:03;27.30;53.40
39019;DHT22;24786;51.984;5.872;2023-06-14T15:01:29;27.30;53.30
39019;DHT22;24786;51.984;5.872;2023-06-14T15:03:54;27.30;54.20
39019;DHT22;24786;51.984;5.872;2023-06-14T15:06:20;27.30;53.70
39019;DHT22;24786;51.984;5.872;2023-06-14T15:08:45;27.30;53.80
39019;DHT22;24786;51.984;5.872;2023-06-14T15:11:11;27.30;53.70
39019;DHT22;24786;51.984;5.872;2023-06-14T15:13:36;27.30;53.30
39019;DHT22;24786;51.984;5.872;2023-06-14T15:16:02;27.20;53.50
39019;DHT22;24786;51.984;5.872;2023-06-14T15:18:27;27.30;53.70
39019;DHT22;24786;51.984;5.872;2023-06-14T15:20:53;27.30;53.80
39019;DHT22;24786;51.984;5.872;2023-06-14T15:23:23;27.30;53.70
39019;DHT22;24786;51.984;5.872;2023-06-14T15:25:48;27.30;53.40
39019;DHT22;24786;51.984;5.872;2023-06-14T15:28:14;27.30;53.40
39019;DHT22;24786;51.984;5.872;2023-06-14T15:30:40;27.20;53.70
39019;DHT22;24786;51.984;5.872;2023-06-14T15:33:06;27.20;53.80
39019;DHT22;24786;51.984;5.872;2023-06-14T15:35:31;27.20;53.70
39019;DHT22;24786;51.984;5.872;2023-06-14T15:37:59;27.10;53.90
39019;DHT22;24786;51.984;5.872;2023-06-14T15:40:25;27.10;54.00